Raleigh Durham International Airport
KRDU : now visible

Airfield :











YOU CAN JOIN US ON...

 
LOGIN :

Register | Disclaimer

   EN    FR    IT 

 









Legend :    VFR   Marginal VFR   IFR   Intensive IFR   Very Intensive IFR
Visi :
Ceiling :
>= 8 km
>= 3000ft
5 to 8 km
1000 to 3000 ft
1500m to 5 km
500 to 1000 ft
800 to 1500m
200 to 500 ft
< 800m
< 200 ft
Symbols :   Thunderstorms  Fog  Heavy snow  Heavy precipitations  Wind > 20 kt






- Airport Elevation : 435 ft
- IATA code : RDU


KRDU - Raleigh Durham International

CURRENT METAR :
  • 071951Z 25015G24KT 10SM SCT055 BKN110 OVC250 27/11 A2984 RMK AO2 SLP102 CB DSNT NE T02720111

EXPIRED METARs :
  • 071851Z 23016G21KT 10SM SCT055 SCT110 BKN250 28/13 A2988 RMK AO2 SLP113 T02830133
  • 071751Z 28010KT 10SM SCT055 SCT100 BKN250 26/13 A2992 RMK AO2 SLP129 T02610128 10278 20122 58025

TAF KRDU
Valid from the 07 at 18:00 until the 08 at 18:00 UTC


071737Z 0718/0818 23008KT P6SM FEW060 SCT150 BKN250
FM072000 23009KT P6SM VCTS SCT050CB BKN090
FM072300 24008KT P6SM BKN070 BKN250
FM081400 26009KT P6SM SCT040 SCT120 BKN250



MET'MAP, your aeronautical weather chart ! - Copyright ORBIFLY December 2007 - Disclaimer

ORBIFLY MET'MAP TEAM :

Programming & Development : Alexandra Zaïnal
Concept & original design : Baudouin d'Aumeries
Assistance for programming : Marc-Olivier Méhu
Technical & hardware support : Manuel Goepfert

Contact : metmap@orbifly.com




SOURCES & CREDITS :

   NOAA       Earth
Advisory